sensor_id;sensor_type;location;lat;lon;timestamp;pressure;altitude;pressure_sealevel;temperature;humidity
15914;BME280;8055;51.930;8.840;2023-02-20T00:00:33;77318.97;;;-145.72;100.00
15914;BME280;8055;51.930;8.840;2023-02-20T00:02:59;77323.13;;;-145.72;100.00
15914;BME280;8055;51.930;8.840;2023-02-20T00:05:24;77341.75;;;-145.72;100.00
15914;BME280;8055;51.930;8.840;2023-02-20T00:07:50;77327.25;;;-145.72;100.00
15914;BME280;8055;51.930;8.840;2023-02-20T00:10:16;77335.53;;;-145.72;100.00
15914;BME280;8055;51.930;8.840;2023-02-20T00:12:41;77341.75;;;-145.72;100.00
15914;BME280;8055;51.930;8.840;2023-02-20T00:15:07;77331.41;;;-145.72;100.00
15914;BME280;8055;51.930;8.840;2023-02-20T00:17:34;77341.75;;;-145.72;100.00
15914;BME280;8055;51.930;8.840;2023-02-20T00:20:00;77335.53;;;-145.72;100.00
15914;BME280;8055;51.930;8.840;2023-02-20T00:22:26;77345.88;;;-145.72;100.00
15914;BME280;8055;51.930;8.840;2023-02-20T00:24:51;77327.25;;;-145.72;100.00
15914;BME280;8055;51.930;8.840;2023-02-20T00:27:17;77335.53;;;-145.72;100.00
15914;BME280;8055;51.930;8.840;2023-02-20T00:29:43;77343.81;;;-145.72;100.00
15914;BME280;8055;51.930;8.840;2023-02-20T00:32:09;77339.69;;;-145.72;100.00
15914;BME280;8055;51.930;8.840;2023-02-20T00:34:34;77325.19;;;-145.72;100.00
15914;BME280;8055;51.930;8.840;2023-02-20T00:37:00;77327.25;;;-145.72;100.00
15914;BME280;8055;51.930;8.840;2023-02-20T00:39:25;77323.13;;;-145.72;100.00
15914;BME280;8055;51.930;8.840;2023-02-20T00:41:50;77327.25;;;-145.72;100.00
15914;BME280;8055;51.930;8.840;2023-02-20T00:44:16;77337.59;;;-145.72;100.00
15914;BME280;8055;51.930;8.840;2023-02-20T00:46:41;77335.53;;;-145.72;100.00
15914;BME280;8055;51.930;8.840;2023-02-20T00:49:06;77333.47;;;-145.72;100.00
15914;BME280;8055;51.930;8.840;2023-02-20T00:51:32;77325.19;;;-145.72;100.00
15914;BME280;8055;51.930;8.840;2023-02-20T00:53:59;77316.91;;;-145.72;100.00
15914;BME280;8055;51.930;8.840;2023-02-20T00:56:25;77321.03;;;-145.72;100.00
15914;BME280;8055;51.930;8.840;2023-02-20T00:58:50;77318.97;;;-145.72;100.00
15914;BME280;8055;51.930;8.840;2023-02-20T01:01:16;77312.75;;;-145.72;100.00
15914;BME280;8055;51.930;8.840;2023-02-20T01:03:42;77308.63;;;-145.72;100.00
15914;BME280;8055;51.930;8.840;2023-02-20T01:06:08;77310.69;;;-145.72;100.00
15914;BME280;8055;51.930;8.840;2023-02-20T01:08:33;77304.47;;;-145.72;100.00
15914;BME280;8055;51.930;8.840;2023-02-20T01:10:58;77300.34;;;-145.72;100.00
15914;BME280;8055;51.930;8.840;2023-02-20T01:13:24;77281.72;;;-145.72;100.00
15914;BME280;8055;51.930;8.840;2023-02-20T01:15:50;77292.06;;;-145.72;100.00
15914;BME280;8055;51.930;8.840;2023-02-20T01:18:15;77298.28;;;-145.72;100.00
15914;BME280;8055;51.930;8.840;2023-02-20T01:20:41;77294.13;;;-145.72;100.00
15914;BME280;8055;51.930;8.840;2023-02-20T01:23:06;77298.28;;;-145.72;100.00
15914;BME280;8055;51.930;8.840;2023-02-20T01:25:31;77298.28;;;-145.72;100.00
15914;BME280;8055;51.930;8.840;2023-02-20T01:27:57;77304.47;;;-145.72;100.00
15914;BME280;8055;51.930;8.840;2023-02-20T01:30:22;77296.19;;;-145.72;100.00
15914;BME280;8055;51.930;8.840;2023-02-20T01:32:47;77310.69;;;-145.72;100.00
15914;BME280;8055;51.930;8.840;2023-02-20T01:35:14;77300.34;;;-145.72;100.00
15914;BME280;8055;51.930;8.840;2023-02-20T01:37:39;77302.41;;;-145.72;100.00
15914;BME280;8055;51.930;8.840;2023-02-20T01:40:05;77304.47;;;-145.72;100.00
15914;BME280;8055;51.930;8.840;2023-02-20T01:42:32;77302.41;;;-145.72;100.00
15914;BME280;8055;51.930;8.840;2023-02-20T01:45:18;77306.56;;;-145.72;100.00
15914;BME280;8055;51.930;8.840;2023-02-20T01:47:44;77285.84;;;-145.72;100.00
15914;BME280;8055;51.930;8.840;2023-02-20T01:50:11;77281.72;;;-145.72;100.00
15914;BME280;8055;51.930;8.840;2023-02-20T01:52:38;77271.38;;;-145.72;100.00
15914;BME280;8055;51.930;8.840;2023-02-20T01:55:11;77267.22;;;-145.72;100.00
15914;BME280;8055;51.930;8.840;2023-02-20T01:57:40;77279.66;;;-145.72;100.00
15914;BME280;8055;51.930;8.840;2023-02-20T02:00:13;77258.94;;;-145.72;100.00
15914;BME280;8055;51.930;8.840;2023-02-20T02:02:45;77256.88;;;-145.72;100.00
15914;BME280;8055;51.930;8.840;2023-02-20T02:05:12;77236.19;;;-145.72;100.00
15914;BME280;8055;51.930;8.840;2023-02-20T02:07:38;77232.03;;;-145.72;100.00
15914;BME280;8055;51.930;8.840;2023-02-20T02:10:13;77232.03;;;-145.72;100.00
15914;BME280;8055;51.930;8.840;2023-02-20T02:12:45;77227.91;;;-145.72;100.00
15914;BME280;8055;51.930;8.840;2023-02-20T02:15:13;77238.25;;;-145.72;100.00
15914;BME280;8055;51.930;8.840;2023-02-20T02:23:10;77234.09;;;-145.72;100.00
15914;BME280;8055;51.930;8.840;2023-02-20T02:37:13;77252.72;;;-145.72;100.00
15914;BME280;8055;51.930;8.840;2023-02-20T02:39:47;77252.72;;;-145.72;100.00
15914;BME280;8055;51.930;8.840;2023-02-20T02:50:16;77269.28;;;-145.72;100.00
15914;BME280;8055;51.930;8.840;2023-02-20T02:52:43;77271.38;;;-145.72;100.00
15914;BME280;8055;51.930;8.840;2023-02-20T02:55:18;77250.66;;;-145.72;100.00
15914;BME280;8055;51.930;8.840;2023-02-20T02:57:44;77256.88;;;-145.72;100.00
15914;BME280;8055;51.930;8.840;2023-02-20T03:00:16;77246.53;;;-145.72;100.00
15914;BME280;8055;51.930;8.840;2023-02-20T03:05:49;77217.53;;;-145.72;100.00
15914;BME280;8055;51.930;8.840;2023-02-20T03:08:22;77223.75;;;-145.72;100.00
15914;BME280;8055;51.930;8.840;2023-02-20T03:11:11;77219.63;;;-145.72;100.00
15914;BME280;8055;51.930;8.840;2023-02-20T03:13:43;77215.47;;;-145.72;100.00
15914;BME280;8055;51.930;8.840;2023-02-20T03:16:33;77223.75;;;-145.72;100.00
15914;BME280;8055;51.930;8.840;2023-02-20T03:19:02;77209.25;;;-145.72;100.00
15914;BME280;8055;51.930;8.840;2023-02-20T03:21:31;77196.84;;;-145.72;100.00
15914;BME280;8055;51.930;8.840;2023-02-20T03:24:00;77190.63;;;-145.72;100.00
15914;BME280;8055;51.930;8.840;2023-02-20T03:26:30;77196.84;;;-145.72;100.00
15914;BME280;8055;51.930;8.840;2023-02-20T03:29:02;77184.44;;;-145.72;100.00
15914;BME280;8055;51.930;8.840;2023-02-20T03:31:37;77178.22;;;-145.72;100.00
15914;BME280;8055;51.930;8.840;2023-02-20T03:34:14;77157.50;;;-145.72;100.00
15914;BME280;8055;51.930;8.840;2023-02-20T03:37:05;77167.88;;;-145.72;100.00
15914;BME280;8055;51.930;8.840;2023-02-20T03:39:55;77153.38;;;-145.72;100.00
15914;BME280;8055;51.930;8.840;2023-02-20T03:42:46;77153.38;;;-145.72;100.00
15914;BME280;8055;51.930;8.840;2023-02-20T03:45:35;77140.97;;;-145.72;100.00
15914;BME280;8055;51.930;8.840;2023-02-20T03:48:07;77136.81;;;-145.72;100.00
15914;BME280;8055;51.930;8.840;2023-02-20T03:50:34;77149.22;;;-145.72;100.00
15914;BME280;8055;51.930;8.840;2023-02-20T03:53:18;77124.41;;;-145.72;100.00
15914;BME280;8055;51.930;8.840;2023-02-20T03:55:45;77134.75;;;-145.72;100.00
15914;BME280;8055;51.930;8.840;2023-02-20T03:58:14;77140.97;;;-145.72;100.00
15914;BME280;8055;51.930;8.840;2023-02-20T04:00:44;77153.38;;;-145.72;100.00
15914;BME280;8055;51.930;8.840;2023-02-20T04:03:18;77151.31;;;-145.72;100.00
15914;BME280;8055;51.930;8.840;2023-02-20T04:05:48;77140.97;;;-145.72;100.00
15914;BME280;8055;51.930;8.840;2023-02-20T04:08:34;77132.69;;;-145.72;100.00
15914;BME280;8055;51.930;8.840;2023-02-20T04:13:46;77128.53;;;-145.72;100.00
15914;BME280;8055;51.930;8.840;2023-02-20T04:16:12;77128.53;;;-145.72;100.00
15914;BME280;8055;51.930;8.840;2023-02-20T04:18:38;77099.56;;;-145.72;100.00
15914;BME280;8055;51.930;8.840;2023-02-20T04:21:08;77103.69;;;-145.72;100.00
15914;BME280;8055;51.930;8.840;2023-02-20T04:23:39;77085.06;;;-145.72;100.00
15914;BME280;8055;51.930;8.840;2023-02-20T04:26:14;77093.34;;;-145.72;100.00
15914;BME280;8055;51.930;8.840;2023-02-20T04:28:41;77091.28;;;-145.72;100.00
15914;BME280;8055;51.930;8.840;2023-02-20T04:31:09;77101.63;;;-145.72;100.00
15914;BME280;8055;51.930;8.840;2023-02-20T04:33:35;77074.72;;;-145.72;100.00
15914;BME280;8055;51.930;8.840;2023-02-20T04:36:01;77064.38;;;-145.72;100.00
15914;BME280;8055;51.930;8.840;2023-02-20T04:38:26;77080.94;;;-145.72;100.00
15914;BME280;8055;51.930;8.840;2023-02-20T04:40:51;77068.50;;;-145.72;100.00
15914;BME280;8055;51.930;8.840;2023-02-20T04:43:17;77070.56;;;-145.72;100.00
15914;BME280;8055;51.930;8.840;2023-02-20T04:45:42;77085.06;;;-145.72;100.00
15914;BME280;8055;51.930;8.840;2023-02-20T04:48:09;77076.78;;;-145.72;100.00
15914;BME280;8055;51.930;8.840;2023-02-20T04:50:34;77076.78;;;-145.72;100.00
15914;BME280;8055;51.930;8.840;2023-02-20T04:53:00;77062.31;;;-145.72;100.00
15914;BME280;8055;51.930;8.840;2023-02-20T04:55:26;77062.31;;;-145.72;100.00
15914;BME280;8055;51.930;8.840;2023-02-20T04:57:52;77074.72;;;-145.72;100.00
15914;BME280;8055;51.930;8.840;2023-02-20T05:00:23;77091.28;;;-145.72;100.00
15914;BME280;8055;51.930;8.840;2023-02-20T05:02:49;77080.94;;;-145.72;100.00
15914;BME280;8055;51.930;8.840;2023-02-20T05:05:19;77047.81;;;-145.72;100.00
15914;BME280;8055;51.930;8.840;2023-02-20T05:07:46;77045.75;;;-145.72;100.00
15914;BME280;8055;51.930;8.840;2023-02-20T05:10:15;77041.59;;;-145.72;100.00
15914;BME280;8055;51.930;8.840;2023-02-20T05:12:41;77043.66;;;-145.72;100.00
15914;BME280;8055;51.930;8.840;2023-02-20T05:15:07;77047.81;;;-145.72;100.00
15914;BME280;8055;51.930;8.840;2023-02-20T05:17:33;77047.81;;;-145.72;100.00
15914;BME280;8055;51.930;8.840;2023-02-20T05:19:58;77060.22;;;-145.72;100.00
15914;BME280;8055;51.930;8.840;2023-02-20T05:22:24;77058.16;;;-145.72;100.00
15914;BME280;8055;51.930;8.840;2023-02-20T05:24:50;77060.22;;;-145.72;100.00
15914;BME280;8055;51.930;8.840;2023-02-20T05:27:19;77045.75;;;-145.72;100.00
15914;BME280;8055;51.930;8.840;2023-02-20T05:29:46;77041.59;;;-145.72;100.00
15914;BME280;8055;51.930;8.840;2023-02-20T05:32:12;77060.22;;;-145.72;100.00
15914;BME280;8055;51.930;8.840;2023-02-20T05:34:37;77037.47;;;-145.72;100.00
15914;BME280;8055;51.930;8.840;2023-02-20T05:37:02;77037.47;;;-145.72;100.00
15914;BME280;8055;51.930;8.840;2023-02-20T05:39:27;77029.19;;;-145.72;100.00
15914;BME280;8055;51.930;8.840;2023-02-20T05:41:53;77020.91;;;-145.72;100.00
15914;BME280;8055;51.930;8.840;2023-02-20T05:44:18;77037.47;;;-145.72;100.00
15914;BME280;8055;51.930;8.840;2023-02-20T05:46:44;77020.91;;;-145.72;100.00
15914;BME280;8055;51.930;8.840;2023-02-20T05:49:09;77027.13;;;-145.72;100.00
15914;BME280;8055;51.930;8.840;2023-02-20T05:51:35;77025.03;;;-145.72;100.00
15914;BME280;8055;51.930;8.840;2023-02-20T05:54:00;77020.91;;;-145.72;100.00
15914;BME280;8055;51.930;8.840;2023-02-20T05:56:26;77022.97;;;-145.72;100.00
15914;BME280;8055;51.930;8.840;2023-02-20T05:58:54;77008.47;;;-145.72;100.00
15914;BME280;8055;51.930;8.840;2023-02-20T06:01:25;77014.69;;;-145.72;100.00
15914;BME280;8055;51.930;8.840;2023-02-20T06:03:51;77008.47;;;-145.72;100.00
15914;BME280;8055;51.930;8.840;2023-02-20T06:06:18;77016.75;;;-145.72;100.00
15914;BME280;8055;51.930;8.840;2023-02-20T06:08:44;77029.19;;;-145.72;100.00
15914;BME280;8055;51.930;8.840;2023-02-20T06:11:11;76989.84;;;-145.72;100.00
15914;BME280;8055;51.930;8.840;2023-02-20T06:13:44;76996.06;;;-145.72;100.00
15914;BME280;8055;51.930;8.840;2023-02-20T06:16:09;77004.34;;;-145.72;100.00
15914;BME280;8055;51.930;8.840;2023-02-20T06:18:39;76981.56;;;-145.72;100.00
15914;BME280;8055;51.930;8.840;2023-02-20T06:21:09;76994.00;;;-145.72;100.00
15914;BME280;8055;51.930;8.840;2023-02-20T06:23:37;76973.28;;;-145.72;100.00
15914;BME280;8055;51.930;8.840;2023-02-20T06:26:04;76985.72;;;-145.72;100.00
15914;BME280;8055;51.930;8.840;2023-02-20T06:28:30;76975.38;;;-145.72;100.00
15914;BME280;8055;51.930;8.840;2023-02-20T06:30:55;76971.22;;;-145.72;100.00
15914;BME280;8055;51.930;8.840;2023-02-20T06:33:21;76975.38;;;-145.72;100.00
15914;BME280;8055;51.930;8.840;2023-02-20T06:35:46;76969.16;;;-145.72;100.00
15914;BME280;8055;51.930;8.840;2023-02-20T06:38:12;76979.50;;;-145.72;100.00
15914;BME280;8055;51.930;8.840;2023-02-20T06:40:38;76971.22;;;-145.72;100.00
15914;BME280;8055;51.930;8.840;2023-02-20T06:43:04;76960.88;;;-145.72;100.00
15914;BME280;8055;51.930;8.840;2023-02-20T06:45:29;76962.94;;;-145.72;100.00
15914;BME280;8055;51.930;8.840;2023-02-20T06:47:55;76956.75;;;-145.72;100.00
15914;BME280;8055;51.930;8.840;2023-02-20T06:50:20;76977.44;;;-145.72;100.00
15914;BME280;8055;51.930;8.840;2023-02-20T06:52:45;76965.00;;;-145.72;100.00
15914;BME280;8055;51.930;8.840;2023-02-20T06:55:11;76956.75;;;-145.72;100.00
15914;BME280;8055;51.930;8.840;2023-02-20T06:57:36;76979.50;;;-145.72;100.00
15914;BME280;8055;51.930;8.840;2023-02-20T07:00:03;76996.06;;;-145.72;100.00
15914;BME280;8055;51.930;8.840;2023-02-20T07:02:28;76981.56;;;-145.72;100.00
15914;BME280;8055;51.930;8.840;2023-02-20T07:04:54;76994.00;;;-145.72;100.00
15914;BME280;8055;51.930;8.840;2023-02-20T07:07:19;76983.66;;;-145.72;100.00
15914;BME280;8055;51.930;8.840;2023-02-20T07:09:44;76979.50;;;-145.72;100.00
15914;BME280;8055;51.930;8.840;2023-02-20T07:12:10;76991.94;;;-145.72;100.00
15914;BME280;8055;51.930;8.840;2023-02-20T07:14:35;76981.56;;;-145.72;100.00
15914;BME280;8055;51.930;8.840;2023-02-20T07:17:01;76981.56;;;-145.72;100.00
15914;BME280;8055;51.930;8.840;2023-02-20T07:19:26;77010.56;;;-145.72;100.00
15914;BME280;8055;51.930;8.840;2023-02-20T07:21:51;76981.56;;;-145.72;100.00
15914;BME280;8055;51.930;8.840;2023-02-20T07:24:17;76971.22;;;-145.72;100.00
15914;BME280;8055;51.930;8.840;2023-02-20T07:26:42;76985.72;;;-145.72;100.00
15914;BME280;8055;51.930;8.840;2023-02-20T07:29:07;76983.66;;;-145.72;100.00
15914;BME280;8055;51.930;8.840;2023-02-20T07:31:33;76954.66;;;-145.72;100.00
15914;BME280;8055;51.930;8.840;2023-02-20T07:33:59;76971.22;;;-145.72;100.00
15914;BME280;8055;51.930;8.840;2023-02-20T07:36:24;76979.50;;;-145.72;100.00
15914;BME280;8055;51.930;8.840;2023-02-20T07:38:58;76969.16;;;-145.72;100.00
15914;BME280;8055;51.930;8.840;2023-02-20T07:41:26;76975.38;;;-145.72;100.00
15914;BME280;8055;51.930;8.840;2023-02-20T07:43:54;76967.09;;;-145.72;100.00
15914;BME280;8055;51.930;8.840;2023-02-20T07:46:19;76971.22;;;-145.72;100.00
15914;BME280;8055;51.930;8.840;2023-02-20T07:48:45;76975.38;;;-145.72;100.00
15914;BME280;8055;51.930;8.840;2023-02-20T07:51:10;76975.38;;;-145.72;100.00
15914;BME280;8055;51.930;8.840;2023-02-20T07:53:35;76994.00;;;-145.72;100.00
15914;BME280;8055;51.930;8.840;2023-02-20T07:56:01;77008.47;;;-145.72;100.00
15914;BME280;8055;51.930;8.840;2023-02-20T07:58:26;77016.75;;;-145.72;100.00
15914;BME280;8055;51.930;8.840;2023-02-20T08:00:52;77022.97;;;-145.72;100.00
15914;BME280;8055;51.930;8.840;2023-02-20T08:03:18;77014.69;;;-145.72;100.00
15914;BME280;8055;51.930;8.840;2023-02-20T08:05:44;77004.34;;;-145.72;100.00
15914;BME280;8055;51.930;8.840;2023-02-20T08:08:09;77012.63;;;-145.72;100.00
15914;BME280;8055;51.930;8.840;2023-02-20T08:10:35;77006.41;;;-145.72;100.00
15914;BME280;8055;51.930;8.840;2023-02-20T08:13:00;76996.06;;;-145.72;100.00
15914;BME280;8055;51.930;8.840;2023-02-20T08:15:27;76987.78;;;-145.72;100.00
15914;BME280;8055;51.930;8.840;2023-02-20T08:17:52;76981.56;;;-145.72;100.00
15914;BME280;8055;51.930;8.840;2023-02-20T08:20:19;76989.84;;;-145.72;100.00
15914;BME280;8055;51.930;8.840;2023-02-20T08:22:46;77000.19;;;-145.72;100.00
15914;BME280;8055;51.930;8.840;2023-02-20T08:25:12;76962.94;;;-145.72;100.00
15914;BME280;8055;51.930;8.840;2023-02-20T08:27:42;76960.88;;;-145.72;100.00
15914;BME280;8055;51.930;8.840;2023-02-20T08:30:12;76973.28;;;-145.72;100.00
15914;BME280;8055;51.930;8.840;2023-02-20T08:32:38;76967.09;;;-145.72;100.00
15914;BME280;8055;51.930;8.840;2023-02-20T08:35:03;76977.44;;;-145.72;100.00
15914;BME280;8055;51.930;8.840;2023-02-20T08:37:29;76979.50;;;-145.72;100.00
15914;BME280;8055;51.930;8.840;2023-02-20T08:39:54;76975.38;;;-145.72;100.00
15914;BME280;8055;51.930;8.840;2023-02-20T08:42:19;76994.00;;;-145.72;100.00
15914;BME280;8055;51.930;8.840;2023-02-20T08:44:45;76991.94;;;-145.72;100.00
15914;BME280;8055;51.930;8.840;2023-02-20T08:47:10;76991.94;;;-145.72;100.00
15914;BME280;8055;51.930;8.840;2023-02-20T08:49:36;76994.00;;;-145.72;100.00
15914;BME280;8055;51.930;8.840;2023-02-20T08:52:01;76983.66;;;-145.72;100.00
15914;BME280;8055;51.930;8.840;2023-02-20T08:54:29;76981.56;;;-145.72;100.00
15914;BME280;8055;51.930;8.840;2023-02-20T08:56:55;76979.50;;;-145.72;100.00
15914;BME280;8055;51.930;8.840;2023-02-20T08:59:20;76958.81;;;-145.72;100.00
15914;BME280;8055;51.930;8.840;2023-02-20T09:01:46;76950.53;;;-145.72;100.00
15914;BME280;8055;51.930;8.840;2023-02-20T09:04:11;76967.09;;;-145.72;100.00
15914;BME280;8055;51.930;8.840;2023-02-20T09:06:37;76973.28;;;-145.72;100.00
15914;BME280;8055;51.930;8.840;2023-02-20T09:09:02;76985.72;;;-145.72;100.00
15914;BME280;8055;51.930;8.840;2023-02-20T09:11:28;76975.38;;;-145.72;100.00
15914;BME280;8055;51.930;8.840;2023-02-20T09:13:53;76965.00;;;-145.72;100.00
15914;BME280;8055;51.930;8.840;2023-02-20T09:16:20;76991.94;;;-145.72;100.00
15914;BME280;8055;51.930;8.840;2023-02-20T09:18:47;76962.94;;;-145.72;100.00
15914;BME280;8055;51.930;8.840;2023-02-20T09:21:14;76983.66;;;-145.72;100.00
15914;BME280;8055;51.930;8.840;2023-02-20T09:23:40;76987.78;;;-145.72;100.00
15914;BME280;8055;51.930;8.840;2023-02-20T09:26:05;76983.66;;;-145.72;100.00
15914;BME280;8055;51.930;8.840;2023-02-20T09:28:31;76971.22;;;-145.72;100.00
15914;BME280;8055;51.930;8.840;2023-02-20T09:30:57;76977.44;;;-145.72;100.00
15914;BME280;8055;51.930;8.840;2023-02-20T09:33:25;76971.22;;;-145.72;100.00
15914;BME280;8055;51.930;8.840;2023-02-20T09:35:51;76962.94;;;-145.72;100.00
15914;BME280;8055;51.930;8.840;2023-02-20T09:38:19;76936.03;;;-145.72;100.00
15914;BME280;8055;51.930;8.840;2023-02-20T09:40:48;76933.97;;;-145.72;100.00
15914;BME280;8055;51.930;8.840;2023-02-20T09:46:24;76929.81;;;-145.72;100.00
15914;BME280;8055;51.930;8.840;2023-02-20T09:49:07;76933.97;;;-145.72;100.00
15914;BME280;8055;51.930;8.840;2023-02-20T09:51:39;76913.28;;;-145.72;100.00
15914;BME280;8055;51.930;8.840;2023-02-20T09:54:20;76925.69;;;-145.72;100.00
15914;BME280;8055;51.930;8.840;2023-02-20T09:56:52;76923.63;;;-145.72;100.00
15914;BME280;8055;51.930;8.840;2023-02-20T09:59:24;76929.81;;;-145.72;100.00
15914;BME280;8055;51.930;8.840;2023-02-20T10:01:57;76915.34;;;-145.72;100.00
15914;BME280;8055;51.930;8.840;2023-02-20T10:04:46;76896.72;;;-145.72;100.00
15914;BME280;8055;51.930;8.840;2023-02-20T10:07:20;76888.44;;;-145.72;100.00
15914;BME280;8055;51.930;8.840;2023-02-20T10:09:47;76890.50;;;-145.72;100.00
15914;BME280;8055;51.930;8.840;2023-02-20T10:14:51;76911.19;;;-145.72;100.00
15914;BME280;8055;51.930;8.840;2023-02-20T10:23:14;76905.00;;;-145.72;100.00
15914;BME280;8055;51.930;8.840;2023-02-20T10:25:48;76888.44;;;-145.72;100.00
15914;BME280;8055;51.930;8.840;2023-02-20T10:28:18;76896.72;;;-145.72;100.00
15914;BME280;8055;51.930;8.840;2023-02-20T10:33:25;76900.84;;;-145.72;100.00
15914;BME280;8055;51.930;8.840;2023-02-20T10:36:14;76871.88;;;-145.72;100.00
15914;BME280;8055;51.930;8.840;2023-02-20T10:39:20;76863.59;;;-145.72;100.00
15914;BME280;8055;51.930;8.840;2023-02-20T10:41:54;76863.59;;;-145.72;100.00
15914;BME280;8055;51.930;8.840;2023-02-20T10:44:36;76876.00;;;-145.72;100.00
15914;BME280;8055;51.930;8.840;2023-02-20T10:47:15;76865.66;;;-145.72;100.00
15914;BME280;8055;51.930;8.840;2023-02-20T10:52:15;76867.72;;;-145.72;100.00
15914;BME280;8055;51.930;8.840;2023-02-20T10:54:45;76873.94;;;-145.72;100.00
15914;BME280;8055;51.930;8.840;2023-02-20T10:57:27;76894.63;;;-145.72;100.00
15914;BME280;8055;51.930;8.840;2023-02-20T11:00:00;76892.56;;;-145.72;100.00
15914;BME280;8055;51.930;8.840;2023-02-20T11:02:32;76919.47;;;-145.72;100.00
15914;BME280;8055;51.930;8.840;2023-02-20T11:05:06;76905.00;;;-145.72;100.00
15914;BME280;8055;51.930;8.840;2023-02-20T11:07:32;76900.84;;;-145.72;100.00
15914;BME280;8055;51.930;8.840;2023-02-20T11:09:58;76913.28;;;-145.72;100.00
15914;BME280;8055;51.930;8.840;2023-02-20T11:14:59;76900.84;;;-145.72;100.00
15914;BME280;8055;51.930;8.840;2023-02-20T11:17:26;76911.19;;;-145.72;100.00
15914;BME280;8055;51.930;8.840;2023-02-20T11:19:59;76894.63;;;-145.72;100.00
15914;BME280;8055;51.930;8.840;2023-02-20T11:22:45;76898.78;;;-145.72;100.00
15914;BME280;8055;51.930;8.840;2023-02-20T11:25:22;76909.13;;;-145.72;100.00
15914;BME280;8055;51.930;8.840;2023-02-20T11:27:52;76911.19;;;-145.72;100.00
15914;BME280;8055;51.930;8.840;2023-02-20T11:30:27;76907.06;;;-145.72;100.00
15914;BME280;8055;51.930;8.840;2023-02-20T11:33:20;76888.44;;;-145.72;100.00
15914;BME280;8055;51.930;8.840;2023-02-20T11:35:49;76907.06;;;-145.72;100.00
15914;BME280;8055;51.930;8.840;2023-02-20T11:45:43;76878.09;;;-145.72;100.00
15914;BME280;8055;51.930;8.840;2023-02-20T11:48:19;76892.56;;;-145.72;100.00
15914;BME280;8055;51.930;8.840;2023-02-20T11:50:48;76878.09;;;-145.72;100.00
15914;BME280;8055;51.930;8.840;2023-02-20T11:53:22;76886.38;;;-145.72;100.00
15914;BME280;8055;51.930;8.840;2023-02-20T11:56:05;76892.56;;;-145.72;100.00
15914;BME280;8055;51.930;8.840;2023-02-20T11:58:32;76902.91;;;-145.72;100.00
15914;BME280;8055;51.930;8.840;2023-02-20T12:00:58;76892.56;;;-145.72;100.00
15914;BME280;8055;51.930;8.840;2023-02-20T12:05:50;76873.94;;;-145.72;100.00
15914;BME280;8055;51.930;8.840;2023-02-20T12:08:33;76863.59;;;-145.72;100.00
15914;BME280;8055;51.930;8.840;2023-02-20T12:11:13;76851.19;;;-145.72;100.00
15914;BME280;8055;51.930;8.840;2023-02-20T12:13:44;76840.81;;;-145.72;100.00
15914;BME280;8055;51.930;8.840;2023-02-20T12:30:57;76793.22;;;-145.72;100.00
15914;BME280;8055;51.930;8.840;2023-02-20T12:36:20;76768.38;;;-145.72;100.00
15914;BME280;8055;51.930;8.840;2023-02-20T12:44:39;76751.81;;;-145.72;100.00
15914;BME280;8055;51.930;8.840;2023-02-20T12:49:53;76762.19;;;-145.72;100.00
15914;BME280;8055;51.930;8.840;2023-02-20T12:55:12;76760.09;;;-145.72;100.00
15914;BME280;8055;51.930;8.840;2023-02-20T13:00:29;76776.66;;;-145.72;100.00
15914;BME280;8055;51.930;8.840;2023-02-20T13:03:12;76784.94;;;-145.72;100.00
15914;BME280;8055;51.930;8.840;2023-02-20T13:05:42;76789.09;;;-145.72;100.00
15914;BME280;8055;51.930;8.840;2023-02-20T13:08:24;76778.72;;;-145.72;100.00
15914;BME280;8055;51.930;8.840;2023-02-20T13:10:55;76787.00;;;-145.72;100.00
15914;BME280;8055;51.930;8.840;2023-02-20T13:13:22;76793.22;;;-145.72;100.00
15914;BME280;8055;51.930;8.840;2023-02-20T13:15:57;76784.94;;;-145.72;100.00
15914;BME280;8055;51.930;8.840;2023-02-20T13:20:57;76766.31;;;-145.72;100.00
15914;BME280;8055;51.930;8.840;2023-02-20T13:23:27;76766.31;;;-145.72;100.00
15914;BME280;8055;51.930;8.840;2023-02-20T13:25:55;76772.53;;;-145.72;100.00
15914;BME280;8055;51.930;8.840;2023-02-20T13:28:37;76751.81;;;-145.72;100.00
15914;BME280;8055;51.930;8.840;2023-02-20T13:31:19;76751.81;;;-145.72;100.00
15914;BME280;8055;51.930;8.840;2023-02-20T13:33:51;76741.47;;;-145.72;100.00
15914;BME280;8055;51.930;8.840;2023-02-20T13:36:49;76731.13;;;-145.72;100.00
15914;BME280;8055;51.930;8.840;2023-02-20T13:47:03;76733.19;;;-145.72;100.00
15914;BME280;8055;51.930;8.840;2023-02-20T13:49:53;76718.72;;;-145.72;100.00
15914;BME280;8055;51.930;8.840;2023-02-20T13:52:38;76710.44;;;-145.72;100.00
15914;BME280;8055;51.930;8.840;2023-02-20T13:55:13;76731.13;;;-145.72;100.00
15914;BME280;8055;51.930;8.840;2023-02-20T13:57:53;76741.47;;;-145.72;100.00
15914;BME280;8055;51.930;8.840;2023-02-20T14:00:48;76727.00;;;-145.72;100.00
15914;BME280;8055;51.930;8.840;2023-02-20T14:03:29;76714.56;;;-145.72;100.00
15914;BME280;8055;51.930;8.840;2023-02-20T14:06:04;76714.56;;;-145.72;100.00
15914;BME280;8055;51.930;8.840;2023-02-20T14:08:30;76704.22;;;-145.72;100.00
15914;BME280;8055;51.930;8.840;2023-02-20T14:11:03;76722.84;;;-145.72;100.00
15914;BME280;8055;51.930;8.840;2023-02-20T14:13:29;76735.28;;;-145.72;100.00
15914;BME280;8055;51.930;8.840;2023-02-20T14:15:56;76724.91;;;-145.72;100.00
15914;BME280;8055;51.930;8.840;2023-02-20T14:18:28;76722.84;;;-145.72;100.00
15914;BME280;8055;51.930;8.840;2023-02-20T14:23:31;76735.28;;;-145.72;100.00
15914;BME280;8055;51.930;8.840;2023-02-20T14:26:02;76714.56;;;-145.72;100.00
15914;BME280;8055;51.930;8.840;2023-02-20T14:28:31;76722.84;;;-145.72;100.00
15914;BME280;8055;51.930;8.840;2023-02-20T14:33:57;76731.13;;;-145.72;100.00
15914;BME280;8055;51.930;8.840;2023-02-20T14:36:47;76729.06;;;-145.72;100.00
15914;BME280;8055;51.930;8.840;2023-02-20T14:41:51;76737.34;;;-145.72;100.00